Time;durP1;ratioP1;P1;durP2;ratioP2;P2;SDS_P1;SDS_P2;PMS_P1;PMS_P2;Temp;Humidity;BMP_temperature;BMP_pressure;BME280_temperature;BME280_humidity;BME280_pressure;Samples;Min_cycle;Max_cycle;Signal;HPM_P1;HPM_P2
2021/07/26 00:00:10;;;;;;;10.38;6.70;;;;;;;18.54;69.63;92537.28;2051640;69;20269;-75
2021/07/26 00:02:37;;;;;;;10.23;6.47;;;;;;;18.43;72.14;92544.84;2051833;70;20373;-75
2021/07/26 00:05:04;;;;;;;10.27;6.40;;;;;;;18.48;69.71;92554.94;2052015;70;20146;-75
2021/07/26 00:07:31;;;;;;;8.52;6.38;;;;;;;18.53;70.28;92564.34;2051891;69;20235;-76
2021/07/26 00:09:57;;;;;;;9.75;6.32;;;;;;;18.49;71.94;92569.94;2051878;69;20517;-75
2021/07/26 00:12:23;;;;;;;11.38;6.68;;;;;;;18.46;72.29;92572.00;2051806;70;20147;-76
2021/07/26 00:14:51;;;;;;;8.77;6.57;;;;;;;18.49;71.62;92573.50;2051966;69;20180;-76
2021/07/26 00:17:19;;;;;;;12.50;6.57;;;;;;;18.50;70.01;92569.25;2051751;69;20210;-75
2021/07/26 00:19:45;;;;;;;10.82;7.05;;;;;;;18.28;71.91;92562.91;2051716;69;20146;-75
2021/07/26 00:22:11;;;;;;;9.48;7.20;;;;;;;18.42;71.24;92560.47;2064542;69;20158;-76
2021/07/26 00:24:37;;;;;;;9.65;6.78;;;;;;;18.40;72.53;92565.38;2051825;70;20157;-75
2021/07/26 00:27:03;;;;;;;10.68;7.00;;;;;;;18.47;71.52;92567.03;2052002;69;20154;-74
2021/07/26 00:29:28;;;;;;;10.98;7.07;;;;;;;18.51;71.39;92573.56;2051897;70;20154;-74
2021/07/26 00:31:54;;;;;;;10.25;6.70;;;;;;;18.45;71.56;92570.53;2051828;70;20209;-75
2021/07/26 00:34:23;;;;;;;13.60;6.78;;;;;;;18.50;71.91;92574.94;2051804;70;20630;-75
2021/07/26 00:36:54;;;;;;;11.25;6.57;;;;;;;18.49;71.06;92570.66;2052303;70;20146;-75
2021/07/26 00:39:25;;;;;;;10.73;6.68;;;;;;;18.42;72.32;92563.34;2052617;70;20158;-73
2021/07/26 00:41:51;;;;;;;10.20;6.95;;;;;;;18.32;71.85;92563.00;2065669;69;20177;-73
2021/07/26 00:44:19;;;;;;;9.85;6.95;;;;;;;18.49;70.29;92553.53;2052919;69;20154;-74
2021/07/26 00:46:50;;;;;;;13.18;7.18;;;;;;;18.47;70.60;92555.63;2052495;69;20148;-74
2021/07/26 00:49:21;;;;;;;11.68;6.75;;;;;;;18.52;70.94;92557.19;2062557;69;20146;-75
2021/07/26 00:51:52;;;;;;;12.32;7.15;;;;;;;18.61;69.01;92566.72;2052328;69;20178;-75
2021/07/26 00:54:31;;;;;;;11.35;6.40;;;;;;;18.63;69.82;92564.63;2064693;69;20147;-74
2021/07/26 00:57:03;;;;;;;12.40;6.78;;;;;;;18.28;70.51;92554.38;2068025;69;20152;-74
2021/07/26 00:59:34;;;;;;;9.50;6.75;;;;;;;18.50;68.83;92537.16;2068637;69;20511;-75
2021/07/26 01:02:04;;;;;;;8.45;6.60;;;;;;;18.55;69.27;92515.94;2068066;69;20718;-74
2021/07/26 01:04:34;;;;;;;11.43;6.88;;;;;;;18.32;72.06;92511.00;2068559;69;20191;-74
2021/07/26 01:07:00;;;;;;;8.85;7.10;;;;;;;17.68;75.36;92514.75;2068586;69;20160;-75
2021/07/26 01:09:27;;;;;;;10.02;7.40;;;;;;;18.03;74.84;92522.28;2068395;69;20163;-76
2021/07/26 01:11:57;;;;;;;9.77;7.05;;;;;;;18.20;71.22;92514.22;2067712;69;20153;-75
2021/07/26 01:14:25;;;;;;;12.85;7.03;;;;;;;18.45;69.14;92522.06;2068780;69;20233;-75
2021/07/26 01:16:51;;;;;;;10.68;7.25;;;;;;;18.27;73.13;92527.25;2068350;69;20165;-74
2021/07/26 01:19:17;;;;;;;10.65;7.30;;;;;;;18.32;71.60;92525.25;2068574;69;20156;-74
2021/07/26 01:21:44;;;;;;;12.63;7.50;;;;;;;18.10;72.96;92525.28;2068616;69;20168;-75
2021/07/26 01:24:11;;;;;;;10.82;7.32;;;;;;;18.04;73.60;92537.97;2068136;69;20172;-74
2021/07/26 01:26:36;;;;;;;10.40;7.32;;;;;;;18.28;69.49;92545.81;2068552;69;20159;-74
2021/07/26 01:29:05;;;;;;;8.88;7.05;;;;;;;18.44;69.15;92539.84;2068451;69;20164;-74
2021/07/26 01:31:31;;;;;;;12.48;7.55;;;;;;;18.29;70.77;92550.13;2068560;69;20172;-74
2021/07/26 01:33:57;;;;;;;10.45;7.55;;;;;;;18.32;70.44;92539.50;2068401;69;20140;-75
2021/07/26 01:36:24;;;;;;;9.30;6.55;;;;;;;18.52;68.80;92540.09;2068356;69;20143;-74
2021/07/26 01:38:53;;;;;;;10.23;6.80;;;;;;;18.35;71.05;92532.47;2068500;69;20179;-74
2021/07/26 01:41:24;;;;;;;11.43;7.05;;;;;;;18.29;70.22;92530.16;2068392;69;20244;-75
2021/07/26 01:44:07;;;;;;;10.88;7.00;;;;;;;18.43;70.59;92530.56;2068319;69;20195;-74
2021/07/26 01:46:51;;;;;;;13.13;6.90;;;;;;;18.48;70.81;92549.25;2068334;69;20156;-74
2021/07/26 01:49:35;;;;;;;9.38;6.85;;;;;;;18.41;71.18;92550.47;2068369;69;20761;-75
2021/07/26 01:52:01;;;;;;;10.10;6.90;;;;;;;18.23;73.88;92547.78;2068387;69;20164;-74
2021/07/26 01:54:27;;;;;;;10.02;7.07;;;;;;;18.13;74.41;92556.03;2067883;69;20156;-75
2021/07/26 01:56:54;;;;;;;9.18;7.00;;;;;;;18.12;73.19;92563.13;2067797;69;20183;-75
2021/07/26 01:59:19;;;;;;;10.68;7.28;;;;;;;18.20;72.40;92571.22;2068465;69;20136;-75
2021/07/26 02:01:45;;;;;;;9.40;7.13;;;;;;;18.25;72.86;92569.94;2068168;69;20191;-75
2021/07/26 02:04:11;;;;;;;10.40;7.30;;;;;;;18.22;74.01;92580.53;2068769;69;20140;-75
2021/07/26 02:06:36;;;;;;;10.95;6.85;;;;;;;18.21;72.52;92570.53;2068475;69;20137;-75
2021/07/26 02:09:02;;;;;;;14.55;7.35;;;;;;;18.23;74.27;92570.59;2068302;69;20160;-74
2021/07/26 02:11:28;;;;;;;10.82;7.43;;;;;;;18.33;70.70;92570.19;2068196;69;20179;-75
2021/07/26 02:13:53;;;;;;;9.27;7.43;;;;;;;18.13;74.25;92570.28;2068481;69;20133;-75
2021/07/26 02:16:20;;;;;;;12.75;7.78;;;;;;;17.98;74.50;92562.69;2068161;69;20198;-76
2021/07/26 02:18:46;;;;;;;12.55;7.10;;;;;;;18.31;71.41;92575.81;2068151;69;20152;-75
2021/07/26 02:21:11;;;;;;;11.90;7.32;;;;;;;18.29;72.79;92553.69;2068277;69;20137;-75
2021/07/26 02:23:37;;;;;;;11.13;7.53;;;;;;;18.32;73.34;92517.41;2068369;69;20176;-75
2021/07/26 02:26:03;;;;;;;14.07;7.20;;;;;;;18.38;72.65;92488.38;2068335;69;20516;-75
2021/07/26 02:28:29;;;;;;;12.20;7.75;;;;;;;18.24;72.16;92494.41;2068397;69;20166;-75
2021/07/26 02:30:55;;;;;;;10.88;6.80;;;;;;;18.21;73.48;92552.72;2068283;69;20140;-75
2021/07/26 02:33:20;;;;;;;12.20;7.30;;;;;;;18.11;74.93;92555.25;2068240;69;20563;-75
2021/07/26 02:35:47;;;;;;;10.07;7.30;;;;;;;18.08;74.76;92537.38;2068368;69;20512;-75
2021/07/26 02:38:13;;;;;;;10.02;7.05;;;;;;;18.26;71.79;92554.28;2068349;69;20157;-76
2021/07/26 02:40:40;;;;;;;11.63;7.15;;;;;;;18.17;73.29;92561.13;2068520;69;20145;-76
2021/07/26 02:43:05;;;;;;;8.70;6.97;;;;;;;18.18;73.56;92551.19;2068343;69;20144;-75
2021/07/26 02:45:31;;;;;;;10.60;7.50;;;;;;;17.68;77.38;92560.28;2068489;69;20152;-75
2021/07/26 02:47:56;;;;;;;10.50;7.50;;;;;;;18.15;72.32;92563.94;2068278;69;20149;-75
2021/07/26 02:50:26;;;;;;;10.90;7.68;;;;;;;18.04;76.18;92569.28;2068368;69;20171;-75
2021/07/26 02:52:52;;;;;;;11.05;6.82;;;;;;;18.00;76.50;92569.16;2068639;69;20145;-75
2021/07/26 02:55:17;;;;;;;9.48;6.35;;;;;;;18.19;72.98;92572.56;2064805;69;20185;-75
2021/07/26 02:57:43;;;;;;;8.95;6.57;;;;;;;18.28;72.25;92575.03;2052248;70;20146;-75
2021/07/26 03:00:09;;;;;;;9.85;6.90;;;;;;;18.23;74.08;92579.13;2052145;70;20509;-75
2021/07/26 03:02:36;;;;;;;8.40;6.65;;;;;;;18.35;72.74;92584.47;2052114;70;20146;-75
2021/07/26 03:05:05;;;;;;;9.32;6.43;;;;;;;18.22;73.76;92585.50;2065093;69;20146;-75
2021/07/26 03:07:32;;;;;;;8.95;5.93;;;;;;;18.28;73.15;92594.97;2052161;69;20172;-75
2021/07/26 03:09:58;;;;;;;8.30;6.40;;;;;;;18.20;74.76;92596.84;2052171;70;20161;-75
2021/07/26 03:12:24;;;;;;;9.07;6.57;;;;;;;18.14;74.96;92596.63;2052108;70;20138;-75
2021/07/26 03:14:49;;;;;;;9.82;6.70;;;;;;;18.23;72.99;92598.34;2052105;70;20577;-75
2021/07/26 03:17:15;;;;;;;9.48;5.78;;;;;;;18.25;73.61;92596.31;2051967;70;20150;-76
2021/07/26 03:19:42;;;;;;;11.80;7.05;;;;;;;18.25;72.45;92595.56;2052073;70;20293;-76
2021/07/26 03:22:45;;;;;;;11.55;6.90;;;;;;;18.19;72.16;92595.38;2065078;69;20589;-77
2021/07/26 03:25:11;;;;;;;;;;;;;;;18.17;75.11;92598.16;2052264;70;20166;-76
2021/07/26 03:27:36;;;;;;;8.15;6.40;;;;;;;18.20;74.39;92602.53;2052035;70;20414;-76
2021/07/26 03:30:03;;;;;;;9.40;5.47;;;;;;;18.12;75.21;92605.84;2052048;69;20200;-76
2021/07/26 03:32:29;;;;;;;13.07;6.30;;;;;;;18.17;74.01;92604.59;2051959;69;20142;-76
2021/07/26 03:34:54;;;;;;;8.10;6.25;;;;;;;18.17;73.39;92604.59;2051992;69;20176;-76
2021/07/26 03:37:20;;;;;;;9.40;6.45;;;;;;;18.10;74.65;92602.22;2052090;70;20166;-74
2021/07/26 03:39:46;;;;;;;9.00;6.20;;;;;;;18.14;74.86;92605.19;2052031;69;20142;-74
2021/07/26 03:42:11;;;;;;;9.95;5.50;;;;;;;18.02;74.88;92600.56;2052034;70;20582;-75
2021/07/26 03:44:37;;;;;;;7.80;5.32;;;;;;;18.13;73.61;92592.34;2052026;70;20146;-75
2021/07/26 03:47:02;;;;;;;9.18;5.18;;;;;;;18.23;70.84;92581.97;2051949;70;20308;-75
2021/07/26 03:49:28;;;;;;;8.45;5.18;;;;;;;18.10;74.12;92574.47;2064914;69;20620;-74
2021/07/26 03:51:53;;;;;;;9.18;5.90;;;;;;;18.20;70.83;92574.78;2052020;70;20138;-75
2021/07/26 03:54:19;;;;;;;6.05;5.15;;;;;;;18.23;71.70;92556.34;2052100;70;20166;-75
2021/07/26 03:56:45;;;;;;;7.47;5.90;;;;;;;18.18;72.32;92565.44;2051890;70;20142;-75
2021/07/26 03:59:10;;;;;;;10.05;6.57;;;;;;;18.02;72.95;92560.69;2052017;70;20216;-75
2021/07/26 04:01:36;;;;;;;7.72;6.00;;;;;;;17.74;75.92;92556.97;2051999;70;20158;-75
2021/07/26 04:04:01;;;;;;;8.95;6.25;;;;;;;17.88;74.83;92548.16;2051963;70;20154;-75
2021/07/26 04:06:27;;;;;;;14.75;6.82;;;;;;;17.95;75.23;92561.88;2065013;69;20227;-75
2021/07/26 04:08:54;;;;;;;11.45;7.13;;;;;;;17.80;76.83;92562.13;2051925;70;20150;-75
2021/07/26 04:13:55;;;;;;;8.50;6.13;;;;;;;18.11;72.74;92535.31;2052471;70;20146;-75
2021/07/26 04:16:21;;;;;;;9.52;6.93;;;;;;;18.12;73.50;92528.22;2052589;70;20165;-75
2021/07/26 04:18:50;;;;;;;10.52;6.88;;;;;;;17.98;73.14;92539.91;2052401;70;20216;-75
2021/07/26 04:21:15;;;;;;;8.25;6.43;;;;;;;18.01;72.96;92558.53;2052579;70;20239;-75
2021/07/26 04:23:41;;;;;;;8.75;6.75;;;;;;;18.03;74.44;92559.31;2052462;70;20602;-76
2021/07/26 04:26:07;;;;;;;11.85;6.70;;;;;;;18.16;71.18;92565.38;2052463;70;20523;-75
2021/07/26 04:28:32;;;;;;;9.25;6.70;;;;;;;18.22;69.45;92551.31;2052400;70;20151;-75
2021/07/26 04:30:58;;;;;;;9.00;6.20;;;;;;;18.24;70.89;92557.09;2052415;70;20162;-75
2021/07/26 04:33:23;;;;;;;10.27;6.95;;;;;;;18.11;73.01;92547.44;2052331;70;20147;-74
2021/07/26 04:35:49;;;;;;;11.90;7.63;;;;;;;17.68;74.50;92540.38;2052523;70;20157;-75
2021/07/26 04:38:15;;;;;;;10.32;7.63;;;;;;;17.54;77.85;92540.63;2052522;70;20154;-75
2021/07/26 04:40:40;;;;;;;9.60;7.28;;;;;;;17.84;74.61;92534.50;2052365;70;20160;-75
2021/07/26 04:43:06;;;;;;;11.50;7.32;;;;;;;17.82;77.49;92530.84;2052527;70;20150;-75
2021/07/26 04:45:31;;;;;;;10.10;7.53;;;;;;;17.89;76.96;92521.13;2052414;70;20267;-75
2021/07/26 04:47:57;;;;;;;12.38;7.05;;;;;;;17.97;76.08;92518.53;2052318;70;20146;-75
2021/07/26 04:50:22;;;;;;;10.25;7.20;;;;;;;18.08;74.79;92525.97;2052510;70;20246;-75
2021/07/26 04:52:48;;;;;;;10.15;7.28;;;;;;;18.13;75.23;92549.63;2052364;70;20192;-75
2021/07/26 04:55:14;;;;;;;12.10;7.10;;;;;;;18.17;70.35;92555.44;2052330;70;20166;-75
2021/07/26 04:57:40;;;;;;;8.95;6.53;;;;;;;18.22;71.20;92563.44;2052380;70;20158;-75
2021/07/26 05:00:07;;;;;;;9.45;7.07;;;;;;;18.26;69.85;92560.00;2052328;70;20150;-75
2021/07/26 05:02:33;;;;;;;11.65;6.72;;;;;;;18.33;70.48;92578.00;2065141;69;20142;-75
2021/07/26 05:05:01;;;;;;;10.23;7.45;;;;;;;17.73;75.88;92573.31;2065292;69;20146;-76
2021/07/26 05:07:26;;;;;;;9.93;7.28;;;;;;;17.85;74.82;92575.09;2052327;69;20184;-76
2021/07/26 05:09:52;;;;;;;11.10;7.10;;;;;;;18.12;71.32;92568.81;2052274;69;20165;-76
2021/07/26 05:12:17;;;;;;;12.15;7.03;;;;;;;18.17;73.20;92573.25;2052306;70;20166;-76
2021/07/26 05:14:47;;;;;;;11.60;7.53;;;;;;;18.13;75.57;92575.25;2052443;70;20150;-76
2021/07/26 05:17:13;;;;;;;9.85;6.93;;;;;;;18.15;75.87;92572.47;2064933;69;20142;-76
2021/07/26 05:19:39;;;;;;;9.55;7.43;;;;;;;18.15;75.04;92572.47;2052422;70;20153;-76
2021/07/26 05:22:05;;;;;;;10.52;7.35;;;;;;;18.08;75.45;92565.84;2052232;70;20146;-76
2021/07/26 05:24:31;;;;;;;10.10;7.30;;;;;;;18.26;70.82;92557.88;2052278;70;20261;-76
2021/07/26 05:27:02;;;;;;;12.23;8.10;;;;;;;18.12;74.59;92563.13;2052291;70;20146;-76
2021/07/26 05:29:28;;;;;;;8.65;6.85;;;;;;;18.03;75.21;92553.59;2052273;70;20154;-76
2021/07/26 05:31:54;;;;;;;10.05;7.07;;;;;;;18.21;74.31;92550.59;2052130;70;20146;-76
2021/07/26 05:34:20;;;;;;;9.98;7.00;;;;;;;18.20;75.97;92545.56;2052264;70;20192;-76
2021/07/26 05:36:45;;;;;;;7.95;6.50;;;;;;;18.21;70.83;92552.72;2052260;69;20535;-76
2021/07/26 05:39:11;;;;;;;10.10;7.68;;;;;;;18.06;75.14;92559.38;2052396;70;20553;-76
2021/07/26 05:41:36;;;;;;;13.52;6.80;;;;;;;18.26;70.17;92540.75;2052382;70;20134;-76
2021/07/26 05:44:02;;;;;;;14.85;7.75;;;;;;;18.19;75.11;92535.53;2052265;70;20146;-77
2021/07/26 05:46:27;;;;;;;9.70;7.13;;;;;;;18.20;71.19;92537.75;2052264;70;20134;-76
2021/07/26 05:48:53;;;;;;;13.50;7.47;;;;;;;18.15;74.67;92546.84;2052120;70;20170;-76
2021/07/26 05:51:18;;;;;;;8.48;7.18;;;;;;;18.19;73.04;92561.19;2052316;70;20583;-75
2021/07/26 05:53:44;;;;;;;11.70;6.47;;;;;;;18.23;72.34;92553.50;2052332;70;20145;-75
2021/07/26 05:56:12;;;;;;;9.70;7.00;;;;;;;18.22;73.87;92566.28;2052242;70;20530;-75
2021/07/26 05:58:45;;;;;;;10.32;7.10;;;;;;;18.16;76.48;92574.66;2052475;70;20165;-76
2021/07/26 06:01:56;;;;;;;12.23;7.13;;;;;;;18.31;70.62;92586.47;2065222;69;20130;-76
2021/07/26 06:03:56;;;;;;;8.98;7.13;;;;;;;18.35;69.65;92589.44;2050743;70;20151;-76
2021/07/26 06:06:21;;;;;;;8.75;6.28;;;;;;;18.26;71.17;92580.66;2052371;70;20475;-75
2021/07/26 06:08:47;;;;;;;11.32;7.85;;;;;;;18.01;74.08;92584.88;2052210;70;20621;-75
2021/07/26 06:11:13;;;;;;;11.80;7.95;;;;;;;18.05;73.93;92587.09;2065233;69;20153;-76
2021/07/26 06:13:38;;;;;;;10.70;7.32;;;;;;;18.08;72.78;92605.00;2052364;70;20229;-76
2021/07/26 06:16:06;;;;;;;9.25;7.07;;;;;;;18.16;73.26;92608.13;2065108;69;20146;-76
2021/07/26 06:18:32;;;;;;;10.07;7.05;;;;;;;18.29;71.83;92624.19;2052177;69;20140;-75
2021/07/26 06:20:58;;;;;;;9.38;7.05;;;;;;;18.27;73.02;92619.16;2052227;70;20138;-75
2021/07/26 06:23:25;;;;;;;11.25;7.50;;;;;;;18.37;69.69;92620.84;2052323;70;20146;-76
2021/07/26 06:25:50;;;;;;;10.50;7.13;;;;;;;18.26;73.29;92620.53;2052407;70;20173;-76
2021/07/26 06:28:16;;;;;;;11.25;7.80;;;;;;;18.13;74.47;92623.69;2052148;70;20153;-76
2021/07/26 06:30:42;;;;;;;9.23;6.78;;;;;;;18.34;73.05;92611.53;2065136;69;20143;-78
2021/07/26 06:33:09;;;;;;;11.02;7.88;;;;;;;18.24;75.26;92606.25;2052042;69;20177;-77
2021/07/26 06:35:35;;;;;;;9.32;7.35;;;;;;;18.28;75.38;92588.56;2052038;70;20131;-76
2021/07/26 06:38:00;;;;;;;8.85;6.95;;;;;;;18.36;72.26;92585.94;2052182;70;20169;-77
2021/07/26 06:40:26;;;;;;;10.65;6.88;;;;;;;18.47;73.83;92578.44;2052338;69;20144;-77
2021/07/26 06:42:52;;;;;;;10.95;7.40;;;;;;;18.52;72.50;92577.16;2052175;69;20166;-77
2021/07/26 06:45:18;;;;;;;10.43;7.03;;;;;;;18.61;72.69;92561.75;2052266;70;20177;-77
2021/07/26 06:47:44;;;;;;;11.25;6.78;;;;;;;18.72;71.45;92577.75;2065027;69;20525;-76
2021/07/26 06:50:10;;;;;;;12.80;7.15;;;;;;;18.77;72.59;92590.00;2052239;70;20585;-76
2021/07/26 06:52:36;;;;;;;11.57;7.80;;;;;;;18.63;71.55;92587.44;2052188;69;20272;-75
2021/07/26 06:55:02;;;;;;;9.23;7.47;;;;;;;18.35;75.42;92600.84;2052094;70;20678;-76
2021/07/26 06:57:28;;;;;;;10.30;6.15;;;;;;;18.49;73.44;92616.25;2065192;69;20722;-77
2021/07/26 06:59:54;;;;;;;11.82;6.88;;;;;;;18.69;72.97;92621.13;2052160;69;20150;-76
2021/07/26 07:02:20;;;;;;;8.43;5.95;;;;;;;18.82;72.47;92625.78;2052103;69;20625;-76
2021/07/26 07:04:48;;;;;;;10.95;5.80;;;;;;;18.86;73.32;92630.91;2052131;70;20304;-77
2021/07/26 07:07:21;;;;;;;;;;;;;;;18.94;72.71;92633.97;2052403;70;20241;-75
2021/07/26 07:09:47;;;;;;;8.90;5.50;;;;;;;18.74;69.50;92637.72;2052018;70;20046;-75
2021/07/26 07:12:17;;;;;;;7.75;5.50;;;;;;;18.92;69.65;92634.66;2052184;70;20138;-76
2021/07/26 07:14:43;;;;;;;7.63;5.70;;;;;;;18.94;70.20;92625.44;2052177;70;20208;-75
2021/07/26 07:17:10;;;;;;;11.00;5.75;;;;;;;18.95;72.15;92626.88;2051936;70;20150;-76
2021/07/26 07:19:43;;;;;;;7.00;5.18;;;;;;;19.09;71.91;92632.97;2052234;70;20152;-77
2021/07/26 07:22:09;;;;;;;7.07;4.60;;;;;;;19.15;68.80;92635.28;2052100;70;20613;-75
2021/07/26 07:24:35;;;;;;;8.10;4.70;;;;;;;19.33;67.12;92627.22;2052093;70;20158;-74
2021/07/26 07:27:00;;;;;;;8.13;4.28;;;;;;;19.53;67.91;92624.19;2052097;70;20174;-75
2021/07/26 07:29:26;;;;;;;8.73;4.05;;;;;;;19.60;68.14;92622.97;2052264;70;20142;-76
2021/07/26 07:31:52;;;;;;;6.82;4.18;;;;;;;19.45;67.33;92621.13;2051925;70;20166;-75
2021/07/26 07:34:17;;;;;;;6.50;3.72;;;;;;;19.30;67.07;92625.72;2051996;70;20633;-75
2021/07/26 07:36:43;;;;;;;4.88;4.10;;;;;;;19.60;67.11;92620.09;2052056;70;20145;-75
2021/07/26 07:39:10;;;;;;;5.95;4.13;;;;;;;19.70;66.06;92611.81;2052054;70;20158;-75
2021/07/26 07:41:36;;;;;;;7.30;3.95;;;;;;;19.63;67.62;92612.34;2052152;70;20221;-75
2021/07/26 07:44:02;;;;;;;6.22;3.30;;;;;;;19.60;66.17;92607.94;2052031;70;20172;-76
2021/07/26 07:46:28;;;;;;;5.50;3.60;;;;;;;19.59;65.55;92615.06;2052007;70;20157;-77
2021/07/26 07:48:53;;;;;;;7.68;3.63;;;;;;;19.51;66.84;92615.56;2064852;69;20165;-76
2021/07/26 07:51:20;;;;;;;4.93;3.63;;;;;;;19.43;68.69;92615.38;2052034;70;20272;-77
2021/07/26 07:53:51;;;;;;;4.90;3.70;;;;;;;19.50;67.44;92611.25;2052009;70;20164;-77
2021/07/26 07:56:17;;;;;;;4.10;3.22;;;;;;;19.73;68.64;92612.59;2051963;69;20161;-76
2021/07/26 07:58:43;;;;;;;6.03;3.50;;;;;;;20.01;70.59;92616.16;2052219;70;20142;-75
2021/07/26 08:01:08;;;;;;;5.07;3.42;;;;;;;20.27;70.47;92603.91;2051990;70;20161;-75
2021/07/26 08:03:34;;;;;;;4.95;3.75;;;;;;;20.27;66.65;92615.34;2051891;70;20189;-77
2021/07/26 08:06:01;;;;;;;8.82;3.80;;;;;;;20.80;66.94;92611.56;2052013;70;20231;-78
2021/07/26 08:08:27;;;;;;;7.95;3.75;;;;;;;21.05;64.87;92604.19;2051963;70;20150;-76
2021/07/26 08:10:53;;;;;;;14.02;4.55;;;;;;;21.29;63.16;92606.81;2051988;70;20205;-76
2021/07/26 08:13:22;;;;;;;11.65;4.03;;;;;;;21.74;61.31;92606.97;2051931;69;20214;-77
2021/07/26 08:15:55;;;;;;;7.95;3.58;;;;;;;21.63;62.61;92605.34;2052170;70;20641;-77
2021/07/26 08:18:22;;;;;;;7.70;3.42;;;;;;;21.77;60.86;92606.31;2051863;70;20182;-77
2021/07/26 08:20:48;;;;;;;4.63;3.00;;;;;;;22.68;59.54;92608.47;2051965;70;20173;-76
2021/07/26 08:23:14;;;;;;;6.97;2.97;;;;;;;22.50;60.42;92600.34;2052091;70;20601;-76
2021/07/26 08:25:40;;;;;;;4.05;2.60;;;;;;;22.30;58.51;92601.47;2051982;70;20146;-77
2021/07/26 08:28:06;;;;;;;5.93;3.25;;;;;;;22.52;57.76;92600.38;2052008;70;20157;-76
2021/07/26 08:30:33;;;;;;;4.93;3.17;;;;;;;22.93;58.45;92593.06;2052029;70;20173;-75
2021/07/26 08:33:00;;;;;;;4.97;3.00;;;;;;;23.27;55.86;92586.31;2051851;70;20237;-75
2021/07/26 08:35:27;;;;;;;5.70;3.00;;;;;;;23.29;55.57;92589.94;2051905;70;20150;-77
2021/07/26 08:37:53;;;;;;;3.53;2.60;;;;;;;23.30;53.64;92587.78;2051944;70;20229;-77
2021/07/26 08:40:20;;;;;;;5.05;3.13;;;;;;;23.40;53.49;92587.91;2052037;69;20137;-77
2021/07/26 08:42:46;;;;;;;3.30;2.60;;;;;;;24.13;54.32;92592.97;2052012;70;20154;-80
2021/07/26 08:45:12;;;;;;;5.53;2.83;;;;;;;24.70;54.19;92584.78;2051922;70;20594;-80
2021/07/26 08:47:42;;;;;;;4.82;2.90;;;;;;;25.13;52.72;92591.53;2051776;69;20158;-78
2021/07/26 08:50:10;;;;;;;3.58;2.60;;;;;;;25.34;52.73;92590.19;2051994;70;20154;-84
2021/07/26 08:52:42;;;;;;;5.00;2.70;;;;;;;25.50;52.05;92580.88;2051891;69;20146;-80
2021/07/26 08:55:13;;;;;;;8.50;3.15;;;;;;;25.50;48.58;92577.97;2051849;70;20260;-76
2021/07/26 08:57:45;;;;;;;3.30;2.53;;;;;;;25.55;50.23;92578.72;2052075;69;20196;-76
2021/07/26 09:00:12;;;;;;;2.53;2.10;;;;;;;25.34;46.83;92575.06;2065218;69;20134;-77
2021/07/26 09:02:38;;;;;;;4.47;2.60;;;;;;;25.02;45.53;92581.38;2052292;70;20143;-78
2021/07/26 09:05:07;;;;;;;5.15;2.60;;;;;;;25.55;48.98;92579.44;2052389;70;20318;-77
2021/07/26 09:07:44;;;;;;;3.17;2.30;;;;;;;25.57;43.86;92572.97;2065376;69;20147;-77
2021/07/26 09:10:18;;;;;;;3.80;2.40;;;;;;;25.71;46.37;92558.59;2052293;70;20575;-77
2021/07/26 09:12:46;;;;;;;6.20;2.53;;;;;;;25.74;45.45;92568.66;2052661;69;20607;-78
2021/07/26 09:15:28;;;;;;;2.83;2.30;;;;;;;26.84;46.33;92568.00;2052339;70;20523;-82
2021/07/26 09:17:55;;;;;;;2.63;2.13;;;;;;;25.76;45.38;92556.47;2052255;69;20613;-76
2021/07/26 09:20:24;;;;;;;2.50;2.30;;;;;;;25.66;43.04;92548.50;2052377;70;20142;-76
2021/07/26 09:22:51;;;;;;;4.40;2.33;;;;;;;27.26;44.71;92543.34;2052373;70;20152;-78
2021/07/26 09:25:25;;;;;;;3.88;2.50;;;;;;;27.19;43.73;92536.16;2052554;70;20143;-77
2021/07/26 09:28:14;;;;;;;2.75;2.20;;;;;;;28.45;41.32;92543.38;2052431;70;20223;-77
2021/07/26 09:30:49;;;;;;;3.95;2.47;;;;;;;28.01;41.79;92537.19;2052408;70;20149;-78
2021/07/26 09:33:23;;;;;;;2.83;2.38;;;;;;;27.85;40.64;92535.09;2052242;70;20146;-77
2021/07/26 09:36:04;;;;;;;2.78;2.42;;;;;;;28.27;41.03;92526.84;2052364;70;20606;-78
2021/07/26 09:38:31;;;;;;;2.95;2.25;;;;;;;28.65;39.32;92528.00;2052345;70;20150;-79
2021/07/26 09:40:56;;;;;;;3.20;2.53;;;;;;;27.55;38.26;92530.22;2052382;70;20618;-77
2021/07/26 09:43:25;;;;;;;4.13;2.17;;;;;;;28.11;41.20;92536.38;2065360;69;20134;-79
2021/07/26 09:45:54;;;;;;;3.55;2.30;;;;;;;28.50;39.53;92539.72;2052558;69;20158;-78
2021/07/26 09:48:22;;;;;;;2.50;1.92;;;;;;;28.98;39.57;92540.00;2051164;70;20153;-77
2021/07/26 09:50:50;;;;;;;3.28;2.30;;;;;;;29.19;40.33;92544.09;2051243;70;20158;-77
2021/07/26 09:53:21;;;;;;;4.60;2.05;;;;;;;29.33;39.22;92535.25;2051802;70;20178;-76
2021/07/26 09:55:49;;;;;;;2.78;1.95;;;;;;;28.81;36.82;92528.53;2051791;69;20318;-75
2021/07/26 09:58:16;;;;;;;2.78;2.00;;;;;;;28.70;39.62;92527.22;2051957;69;20174;-75
2021/07/26 10:00:43;;;;;;;3.28;1.90;;;;;;;28.60;37.83;92516.44;2051792;69;20304;-75
2021/07/26 10:03:13;;;;;;;2.88;2.00;;;;;;;29.72;38.45;92511.56;2051706;69;20149;-76
2021/07/26 10:05:41;;;;;;;1.90;1.80;;;;;;;27.83;37.33;92511.28;2051820;70;20158;-75
2021/07/26 10:08:08;;;;;;;2.60;1.80;;;;;;;29.04;37.40;92517.44;2051565;70;20585;-75
2021/07/26 10:10:35;;;;;;;3.08;2.00;;;;;;;29.74;36.41;92514.44;2051460;69;20135;-76
2021/07/26 10:13:03;;;;;;;2.35;2.05;;;;;;;30.25;34.52;92510.09;2051688;69;20161;-76
2021/07/26 10:15:31;;;;;;;2.55;1.88;;;;;;;30.89;35.73;92507.53;2051803;70;20135;-75
2021/07/26 10:18:00;;;;;;;2.63;1.80;;;;;;;30.24;36.43;92514.44;2051583;69;20169;-75
2021/07/26 10:20:34;;;;;;;4.15;1.88;;;;;;;29.52;33.79;92498.03;2051685;69;20589;-77
2021/07/26 10:23:11;;;;;;;2.00;1.80;;;;;;;30.67;33.53;92507.91;2051770;70;20138;-74
2021/07/26 10:25:46;;;;;;;2.55;2.28;;;;;;;29.60;34.51;92508.84;2051865;69;20153;-74
2021/07/26 10:28:24;;;;;;;2.10;1.90;;;;;;;29.57;35.41;92504.53;2051862;69;20154;-74
2021/07/26 10:30:50;;;;;;;3.50;1.90;;;;;;;29.95;34.01;92499.63;2049797;69;20234;-76
2021/07/26 10:33:16;;;;;;;5.03;1.70;;;;;;;29.65;32.88;92495.72;2048306;69;20146;-78
2021/07/26 10:35:50;;;;;;;1.92;1.73;;;;;;;31.11;34.58;92500.56;2048411;69;20162;-76
2021/07/26 10:38:56;;;;;;;4.97;1.92;;;;;;;30.35;31.76;92489.59;2048440;70;20181;-79
2021/07/26 10:41:55;;;;;;;3.97;1.90;;;;;;;31.32;33.52;92490.00;2048672;70;20173;-75
2021/07/26 10:44:22;;;;;;;2.00;1.70;;;;;;;30.83;32.17;92493.09;2059863;69;20166;-78
2021/07/26 10:46:53;;;;;;;2.28;1.80;;;;;;;30.63;32.88;92489.09;2048055;70;20161;-77
2021/07/26 10:49:21;;;;;;;2.13;1.70;;;;;;;31.52;31.62;92488.13;2048426;70;20157;-78
2021/07/26 10:51:50;;;;;;;3.80;1.75;;;;;;;31.74;33.38;92472.38;2048571;70;20263;-78
2021/07/26 10:54:34;;;;;;;3.58;1.63;;;;;;;33.11;28.86;92484.34;2048544;70;20242;-79
2021/07/26 10:56:59;;;;;;;2.78;1.92;;;;;;;32.36;31.12;92476.03;2048223;69;20179;-75
2021/07/26 10:59:25;;;;;;;2.22;1.70;;;;;;;32.39;29.71;92479.63;2048387;70;20290;-75
2021/07/26 11:01:57;;;;;;;3.17;1.80;;;;;;;32.96;30.76;92480.41;2048143;69;20167;-74
2021/07/26 11:04:34;;;;;;;4.78;1.88;;;;;;;34.80;27.69;92475.56;2048331;69;20709;-75
2021/07/26 11:07:04;;;;;;;2.55;1.65;;;;;;;35.38;27.22;92477.94;2048192;70;20170;-76
2021/07/26 11:09:41;;;;;;;2.05;1.75;;;;;;;37.92;25.06;92474.22;2048246;69;20155;-74
2021/07/26 11:12:07;;;;;;;2.28;1.67;;;;;;;35.58;24.52;92470.66;2048304;70;20647;-75
2021/07/26 11:14:33;;;;;;;1.83;1.70;;;;;;;39.50;20.55;92482.66;2048113;69;20502;-76
2021/07/26 11:17:09;;;;;;;1.70;1.60;;;;;;;39.77;21.00;92473.13;2047998;70;20644;-75
2021/07/26 11:19:41;;;;;;;2.88;1.70;;;;;;;39.30;19.86;92463.81;2048259;70;20150;-77
2021/07/26 11:22:26;;;;;;;2.40;1.58;;;;;;;36.85;22.62;92460.53;2047984;69;20872;-76
2021/07/26 11:25:11;;;;;;;3.10;1.48;;;;;;;34.06;26.01;92450.97;2052752;69;20175;-76
2021/07/26 11:27:37;;;;;;;2.65;1.88;;;;;;;33.64;27.25;92445.66;2048588;70;20587;-77
2021/07/26 11:30:04;;;;;;;2.20;1.73;;;;;;;33.03;28.14;92446.66;2048456;70;20169;-77
2021/07/26 11:32:30;;;;;;;1.90;1.70;;;;;;;37.32;24.56;92450.41;2048270;70;20149;-74
2021/07/26 11:35:00;;;;;;;1.70;1.60;;;;;;;35.55;25.21;92443.66;2048256;70;20162;-76
2021/07/26 11:37:32;;;;;;;2.63;1.58;;;;;;;33.81;27.70;92442.91;2048103;70;20189;-76